sensor_id;sensor_type;location;lat;lon;timestamp;temperature;humidity
9167;DHT22;4618;48.818;9.088;2023-09-19T00:00:23;17.00;1.00
9167;DHT22;4618;48.818;9.088;2023-09-19T00:02:58;17.10;99.90
9167;DHT22;4618;48.818;9.088;2023-09-19T00:05:28;17.10;99.90
9167;DHT22;4618;48.818;9.088;2023-09-19T00:07:56;17.10;99.90
9167;DHT22;4618;48.818;9.088;2023-09-19T00:10:26;17.00;1.00
9167;DHT22;4618;48.818;9.088;2023-09-19T00:12:55;17.10;99.90
9167;DHT22;4618;48.818;9.088;2023-09-19T00:15:22;17.10;99.90
9167;DHT22;4618;48.818;9.088;2023-09-19T00:17:48;17.10;99.90
9167;DHT22;4618;48.818;9.088;2023-09-19T00:20:14;17.20;99.90
9167;DHT22;4618;48.818;9.088;2023-09-19T00:22:43;17.10;99.90
9167;DHT22;4618;48.818;9.088;2023-09-19T00:25:09;17.10;99.90
9167;DHT22;4618;48.818;9.088;2023-09-19T00:27:40;17.10;99.90
9167;DHT22;4618;48.818;9.088;2023-09-19T00:30:08;17.10;99.90
9167;DHT22;4618;48.818;9.088;2023-09-19T00:32:40;17.10;99.90
9167;DHT22;4618;48.818;9.088;2023-09-19T00:35:06;17.10;99.90
9167;DHT22;4618;48.818;9.088;2023-09-19T00:37:31;17.10;99.90
9167;DHT22;4618;48.818;9.088;2023-09-19T00:39:57;17.10;1.00
9167;DHT22;4618;48.818;9.088;2023-09-19T00:42:22;17.00;1.00
9167;DHT22;4618;48.818;9.088;2023-09-19T00:44:48;16.90;1.00
9167;DHT22;4618;48.818;9.088;2023-09-19T00:47:17;17.00;1.00
9167;DHT22;4618;48.818;9.088;2023-09-19T00:49:43;17.00;1.00
9167;DHT22;4618;48.818;9.088;2023-09-19T00:52:11;16.90;1.00
9167;DHT22;4618;48.818;9.088;2023-09-19T00:54:37;16.90;99.90
9167;DHT22;4618;48.818;9.088;2023-09-19T00:57:03;16.90;1.00
9167;DHT22;4618;48.818;9.088;2023-09-19T00:59:29;16.90;1.00
9167;DHT22;4618;48.818;9.088;2023-09-19T01:01:56;16.80;99.90
9167;DHT22;4618;48.818;9.088;2023-09-19T01:04:22;16.70;99.90
9167;DHT22;4618;48.818;9.088;2023-09-19T01:06:49;16.80;99.90
9167;DHT22;4618;48.818;9.088;2023-09-19T01:09:19;16.80;99.90
9167;DHT22;4618;48.818;9.088;2023-09-19T01:11:48;16.80;99.90
9167;DHT22;4618;48.818;9.088;2023-09-19T01:17:20;16.70;1.00
9167;DHT22;4618;48.818;9.088;2023-09-19T01:22:56;16.60;1.00
9167;DHT22;4618;48.818;9.088;2023-09-19T01:28:31;16.50;1.00
9167;DHT22;4618;48.818;9.088;2023-09-19T01:31:02;16.50;1.00
9167;DHT22;4618;48.818;9.088;2023-09-19T01:36:16;16.60;99.90
9167;DHT22;4618;48.818;9.088;2023-09-19T01:38:42;16.60;99.90
9167;DHT22;4618;48.818;9.088;2023-09-19T01:41:11;16.60;99.90
9167;DHT22;4618;48.818;9.088;2023-09-19T01:43:42;16.60;99.90
9167;DHT22;4618;48.818;9.088;2023-09-19T01:46:09;16.60;99.90
9167;DHT22;4618;48.818;9.088;2023-09-19T01:48:40;16.60;99.90
9167;DHT22;4618;48.818;9.088;2023-09-19T01:51:09;16.60;1.00
9167;DHT22;4618;48.818;9.088;2023-09-19T01:54:01;16.50;1.00
9167;DHT22;4618;48.818;9.088;2023-09-19T01:56:38;16.60;1.00
9167;DHT22;4618;48.818;9.088;2023-09-19T01:59:14;16.60;1.00
9167;DHT22;4618;48.818;9.088;2023-09-19T02:01:42;16.60;1.00
9167;DHT22;4618;48.818;9.088;2023-09-19T02:04:10;16.60;99.90
9167;DHT22;4618;48.818;9.088;2023-09-19T02:06:42;16.60;99.90
9167;DHT22;4618;48.818;9.088;2023-09-19T02:09:08;16.60;99.90
9167;DHT22;4618;48.818;9.088;2023-09-19T02:11:34;16.60;99.90
9167;DHT22;4618;48.818;9.088;2023-09-19T02:14:00;16.60;99.90
9167;DHT22;4618;48.818;9.088;2023-09-19T02:16:26;16.60;99.90
9167;DHT22;4618;48.818;9.088;2023-09-19T02:18:52;16.50;99.90
9167;DHT22;4618;48.818;9.088;2023-09-19T02:21:18;16.50;99.90
9167;DHT22;4618;48.818;9.088;2023-09-19T02:23:44;16.50;99.90
9167;DHT22;4618;48.818;9.088;2023-09-19T02:26:10;16.50;99.90
9167;DHT22;4618;48.818;9.088;2023-09-19T02:28:37;16.50;99.90
9167;DHT22;4618;48.818;9.088;2023-09-19T02:31:03;16.50;99.90
9167;DHT22;4618;48.818;9.088;2023-09-19T02:33:31;16.50;91.80
9167;DHT22;4618;48.818;9.088;2023-09-19T02:35:58;16.40;99.90
9167;DHT22;4618;48.818;9.088;2023-09-19T02:38:27;16.40;99.90
9167;DHT22;4618;48.818;9.088;2023-09-19T02:40:52;16.40;99.90
9167;DHT22;4618;48.818;9.088;2023-09-19T02:43:18;16.40;99.90
9167;DHT22;4618;48.818;9.088;2023-09-19T02:45:47;16.30;99.90
9167;DHT22;4618;48.818;9.088;2023-09-19T02:48:15;16.30;99.90
9167;DHT22;4618;48.818;9.088;2023-09-19T02:50:40;16.30;99.90
9167;DHT22;4618;48.818;9.088;2023-09-19T02:53:07;16.40;99.90
9167;DHT22;4618;48.818;9.088;2023-09-19T02:55:33;16.40;99.90
9167;DHT22;4618;48.818;9.088;2023-09-19T02:57:59;16.30;1.00
9167;DHT22;4618;48.818;9.088;2023-09-19T03:00:27;16.30;1.00
9167;DHT22;4618;48.818;9.088;2023-09-19T03:02:56;16.30;1.00
9167;DHT22;4618;48.818;9.088;2023-09-19T03:05:23;16.20;1.00
9167;DHT22;4618;48.818;9.088;2023-09-19T03:07:49;16.30;1.00
9167;DHT22;4618;48.818;9.088;2023-09-19T03:10:16;16.30;1.00
9167;DHT22;4618;48.818;9.088;2023-09-19T03:12:43;16.40;1.00
9167;DHT22;4618;48.818;9.088;2023-09-19T03:15:08;16.40;1.00
9167;DHT22;4618;48.818;9.088;2023-09-19T03:17:35;16.50;99.90
9167;DHT22;4618;48.818;9.088;2023-09-19T03:20:01;16.50;99.90
9167;DHT22;4618;48.818;9.088;2023-09-19T03:22:27;16.50;99.90
9167;DHT22;4618;48.818;9.088;2023-09-19T03:24:53;16.50;99.90
9167;DHT22;4618;48.818;9.088;2023-09-19T03:27:19;16.50;99.90
9167;DHT22;4618;48.818;9.088;2023-09-19T03:29:46;16.50;99.90
9167;DHT22;4618;48.818;9.088;2023-09-19T03:32:12;16.60;99.90
9167;DHT22;4618;48.818;9.088;2023-09-19T03:34:38;16.60;99.90
9167;DHT22;4618;48.818;9.088;2023-09-19T03:37:08;16.60;99.90
9167;DHT22;4618;48.818;9.088;2023-09-19T03:39:34;16.60;99.90
9167;DHT22;4618;48.818;9.088;2023-09-19T03:42:01;16.60;87.30
9167;DHT22;4618;48.818;9.088;2023-09-19T03:44:28;16.60;99.50
9167;DHT22;4618;48.818;9.088;2023-09-19T03:46:53;16.60;99.90
9167;DHT22;4618;48.818;9.088;2023-09-19T03:49:20;16.60;99.90
9167;DHT22;4618;48.818;9.088;2023-09-19T03:51:46;16.60;99.90
9167;DHT22;4618;48.818;9.088;2023-09-19T03:54:12;16.60;99.90
9167;DHT22;4618;48.818;9.088;2023-09-19T03:56:38;16.60;1.00
9167;DHT22;4618;48.818;9.088;2023-09-19T03:59:03;16.50;99.90
9167;DHT22;4618;48.818;9.088;2023-09-19T04:01:30;16.30;99.90
9167;DHT22;4618;48.818;9.088;2023-09-19T04:03:57;16.20;1.00
9167;DHT22;4618;48.818;9.088;2023-09-19T04:06:23;16.00;99.90
9167;DHT22;4618;48.818;9.088;2023-09-19T04:08:48;15.90;1.00
9167;DHT22;4618;48.818;9.088;2023-09-19T04:11:14;15.80;1.00
9167;DHT22;4618;48.818;9.088;2023-09-19T04:13:40;15.60;1.00
9167;DHT22;4618;48.818;9.088;2023-09-19T04:16:05;15.50;1.00
9167;DHT22;4618;48.818;9.088;2023-09-19T04:18:32;15.50;1.00
9167;DHT22;4618;48.818;9.088;2023-09-19T04:20:59;15.40;38.80
9167;DHT22;4618;48.818;9.088;2023-09-19T04:23:28;15.40;99.90
9167;DHT22;4618;48.818;9.088;2023-09-19T04:25:53;15.40;99.90
9167;DHT22;4618;48.818;9.088;2023-09-19T04:28:19;15.40;99.90
9167;DHT22;4618;48.818;9.088;2023-09-19T04:30:45;15.30;99.90
9167;DHT22;4618;48.818;9.088;2023-09-19T04:33:10;15.40;99.90
9167;DHT22;4618;48.818;9.088;2023-09-19T04:35:37;15.40;99.90
9167;DHT22;4618;48.818;9.088;2023-09-19T04:38:04;15.30;99.90
9167;DHT22;4618;48.818;9.088;2023-09-19T04:40:32;15.30;99.90
9167;DHT22;4618;48.818;9.088;2023-09-19T04:42:58;15.30;99.90
9167;DHT22;4618;48.818;9.088;2023-09-19T04:45:24;15.30;99.90
9167;DHT22;4618;48.818;9.088;2023-09-19T04:47:50;15.20;99.90
9167;DHT22;4618;48.818;9.088;2023-09-19T04:50:15;15.30;1.00
9167;DHT22;4618;48.818;9.088;2023-09-19T04:52:45;15.40;99.90
9167;DHT22;4618;48.818;9.088;2023-09-19T04:55:12;15.50;99.90
9167;DHT22;4618;48.818;9.088;2023-09-19T04:57:49;15.60;99.90
9167;DHT22;4618;48.818;9.088;2023-09-19T05:00:16;15.60;99.90
9167;DHT22;4618;48.818;9.088;2023-09-19T05:02:45;15.60;99.90
9167;DHT22;4618;48.818;9.088;2023-09-19T05:05:11;15.50;99.90
9167;DHT22;4618;48.818;9.088;2023-09-19T05:07:38;15.40;1.00
9167;DHT22;4618;48.818;9.088;2023-09-19T05:10:05;15.50;1.00
9167;DHT22;4618;48.818;9.088;2023-09-19T05:12:33;15.50;1.00
9167;DHT22;4618;48.818;9.088;2023-09-19T05:14:59;15.50;1.00
9167;DHT22;4618;48.818;9.088;2023-09-19T05:17:26;15.50;1.00
9167;DHT22;4618;48.818;9.088;2023-09-19T05:19:52;15.60;1.00
9167;DHT22;4618;48.818;9.088;2023-09-19T05:22:18;15.70;1.00
9167;DHT22;4618;48.818;9.088;2023-09-19T05:24:44;15.70;1.00
9167;DHT22;4618;48.818;9.088;2023-09-19T05:27:16;15.70;1.00
9167;DHT22;4618;48.818;9.088;2023-09-19T05:29:43;15.70;1.00
9167;DHT22;4618;48.818;9.088;2023-09-19T05:32:10;15.60;1.00
9167;DHT22;4618;48.818;9.088;2023-09-19T05:34:36;15.60;1.00
9167;DHT22;4618;48.818;9.088;2023-09-19T05:37:01;15.60;1.00
9167;DHT22;4618;48.818;9.088;2023-09-19T05:39:27;15.50;1.00
9167;DHT22;4618;48.818;9.088;2023-09-19T05:41:53;15.40;99.90
9167;DHT22;4618;48.818;9.088;2023-09-19T05:44:18;15.40;16.30
9167;DHT22;4618;48.818;9.088;2023-09-19T05:46:44;15.30;20.80
9167;DHT22;4618;48.818;9.088;2023-09-19T05:49:11;15.30;29.70
9167;DHT22;4618;48.818;9.088;2023-09-19T05:51:37;15.30;90.30
9167;DHT22;4618;48.818;9.088;2023-09-19T05:54:02;15.30;95.30
9167;DHT22;4618;48.818;9.088;2023-09-19T05:56:30;15.30;99.90
9167;DHT22;4618;48.818;9.088;2023-09-19T06:01:21;15.00;99.90
9167;DHT22;4618;48.818;9.088;2023-09-19T06:03:47;14.80;1.00
9167;DHT22;4618;48.818;9.088;2023-09-19T06:06:13;14.80;1.00
9167;DHT22;4618;48.818;9.088;2023-09-19T06:08:39;14.70;99.90
9167;DHT22;4618;48.818;9.088;2023-09-19T06:11:05;14.70;99.90
9167;DHT22;4618;48.818;9.088;2023-09-19T06:13:34;14.60;99.90
9167;DHT22;4618;48.818;9.088;2023-09-19T06:16:01;14.70;99.90
9167;DHT22;4618;48.818;9.088;2023-09-19T06:18:31;14.70;99.90
9167;DHT22;4618;48.818;9.088;2023-09-19T06:20:59;14.70;99.90
9167;DHT22;4618;48.818;9.088;2023-09-19T06:23:25;14.80;99.90
9167;DHT22;4618;48.818;9.088;2023-09-19T06:25:52;14.80;99.90
9167;DHT22;4618;48.818;9.088;2023-09-19T06:28:18;14.80;99.90
9167;DHT22;4618;48.818;9.088;2023-09-19T06:30:49;14.90;99.90
9167;DHT22;4618;48.818;9.088;2023-09-19T06:33:15;14.90;99.90
9167;DHT22;4618;48.818;9.088;2023-09-19T06:35:40;15.00;99.90
9167;DHT22;4618;48.818;9.088;2023-09-19T06:38:07;15.10;89.00
9167;DHT22;4618;48.818;9.088;2023-09-19T06:40:34;15.20;1.00
9167;DHT22;4618;48.818;9.088;2023-09-19T06:43:00;15.30;99.90
9167;DHT22;4618;48.818;9.088;2023-09-19T06:45:27;15.40;99.90
9167;DHT22;4618;48.818;9.088;2023-09-19T06:47:53;15.60;93.10
9167;DHT22;4618;48.818;9.088;2023-09-19T06:50:21;15.60;1.00
9167;DHT22;4618;48.818;9.088;2023-09-19T06:52:54;15.80;1.00
9167;DHT22;4618;48.818;9.088;2023-09-19T06:55:22;15.80;1.00
9167;DHT22;4618;48.818;9.088;2023-09-19T06:57:53;15.90;1.00
9167;DHT22;4618;48.818;9.088;2023-09-19T07:00:22;16.00;99.90
9167;DHT22;4618;48.818;9.088;2023-09-19T07:02:58;16.10;99.90
9167;DHT22;4618;48.818;9.088;2023-09-19T07:05:27;16.10;99.90
9167;DHT22;4618;48.818;9.088;2023-09-19T07:07:53;16.10;99.90
9167;DHT22;4618;48.818;9.088;2023-09-19T07:10:20;16.10;99.90
9167;DHT22;4618;48.818;9.088;2023-09-19T07:12:56;16.20;99.90
9167;DHT22;4618;48.818;9.088;2023-09-19T07:15:23;16.20;99.90
9167;DHT22;4618;48.818;9.088;2023-09-19T07:17:51;16.20;99.90
9167;DHT22;4618;48.818;9.088;2023-09-19T07:20:17;16.30;99.90
9167;DHT22;4618;48.818;9.088;2023-09-19T07:22:44;16.40;99.90
9167;DHT22;4618;48.818;9.088;2023-09-19T07:25:09;16.50;99.90
9167;DHT22;4618;48.818;9.088;2023-09-19T07:27:35;16.50;1.00
9167;DHT22;4618;48.818;9.088;2023-09-19T07:30:00;16.50;1.00
9167;DHT22;4618;48.818;9.088;2023-09-19T07:32:26;16.50;1.00
9167;DHT22;4618;48.818;9.088;2023-09-19T07:34:51;16.50;1.00
9167;DHT22;4618;48.818;9.088;2023-09-19T07:37:17;16.60;1.00
9167;DHT22;4618;48.818;9.088;2023-09-19T07:39:43;16.60;1.00
9167;DHT22;4618;48.818;9.088;2023-09-19T07:42:10;16.60;1.00
9167;DHT22;4618;48.818;9.088;2023-09-19T07:44:36;16.80;1.00
9167;DHT22;4618;48.818;9.088;2023-09-19T07:47:02;16.80;1.00
9167;DHT22;4618;48.818;9.088;2023-09-19T07:49:29;16.90;1.00
9167;DHT22;4618;48.818;9.088;2023-09-19T07:51:54;16.90;99.90
9167;DHT22;4618;48.818;9.088;2023-09-19T07:54:20;17.00;1.00
9167;DHT22;4618;48.818;9.088;2023-09-19T07:56:46;17.10;1.00
9167;DHT22;4618;48.818;9.088;2023-09-19T07:59:12;17.10;99.90
9167;DHT22;4618;48.818;9.088;2023-09-19T08:01:39;17.20;99.90
9167;DHT22;4618;48.818;9.088;2023-09-19T08:04:07;17.30;99.90
9167;DHT22;4618;48.818;9.088;2023-09-19T08:06:33;17.50;16.00
9167;DHT22;4618;48.818;9.088;2023-09-19T08:08:58;17.80;1.00
9167;DHT22;4618;48.818;9.088;2023-09-19T08:11:26;18.00;1.00
9167;DHT22;4618;48.818;9.088;2023-09-19T08:13:51;18.40;99.90
9167;DHT22;4618;48.818;9.088;2023-09-19T08:16:18;18.60;99.90
9167;DHT22;4618;48.818;9.088;2023-09-19T08:18:48;18.70;1.00
9167;DHT22;4618;48.818;9.088;2023-09-19T08:21:18;19.00;1.00
9167;DHT22;4618;48.818;9.088;2023-09-19T08:23:44;19.20;1.00
9167;DHT22;4618;48.818;9.088;2023-09-19T08:26:10;19.30;99.90
9167;DHT22;4618;48.818;9.088;2023-09-19T08:28:36;19.50;1.00
9167;DHT22;4618;48.818;9.088;2023-09-19T08:31:03;19.70;99.90
9167;DHT22;4618;48.818;9.088;2023-09-19T08:33:33;20.00;99.90
9167;DHT22;4618;48.818;9.088;2023-09-19T08:35:59;20.30;99.90
9167;DHT22;4618;48.818;9.088;2023-09-19T08:38:25;20.30;1.00
9167;DHT22;4618;48.818;9.088;2023-09-19T08:40:57;20.40;1.00
9167;DHT22;4618;48.818;9.088;2023-09-19T08:43:24;20.70;1.00
9167;DHT22;4618;48.818;9.088;2023-09-19T08:45:49;20.80;1.00
9167;DHT22;4618;48.818;9.088;2023-09-19T08:48:26;20.60;1.00
9167;DHT22;4618;48.818;9.088;2023-09-19T08:51:02;21.10;99.90
9167;DHT22;4618;48.818;9.088;2023-09-19T08:55:54;20.90;99.90
9167;DHT22;4618;48.818;9.088;2023-09-19T08:58:26;21.30;99.90
9167;DHT22;4618;48.818;9.088;2023-09-19T09:03:21;22.40;1.00
9167;DHT22;4618;48.818;9.088;2023-09-19T09:05:48;22.40;53.60
9167;DHT22;4618;48.818;9.088;2023-09-19T09:08:16;22.30;1.00
9167;DHT22;4618;48.818;9.088;2023-09-19T09:10:44;22.20;1.00
9167;DHT22;4618;48.818;9.088;2023-09-19T09:13:09;22.30;1.00
9167;DHT22;4618;48.818;9.088;2023-09-19T09:28:19;21.20;99.90
9167;DHT22;4618;48.818;9.088;2023-09-19T09:30:46;20.40;49.80
9167;DHT22;4618;48.818;9.088;2023-09-19T09:33:13;20.30;5.40
9167;DHT22;4618;48.818;9.088;2023-09-19T09:35:57;20.50;1.00
9167;DHT22;4618;48.818;9.088;2023-09-19T09:38:25;20.80;1.00
9167;DHT22;4618;48.818;9.088;2023-09-19T09:40:55;20.70;1.00
9167;DHT22;4618;48.818;9.088;2023-09-19T09:43:36;20.30;1.00
9167;DHT22;4618;48.818;9.088;2023-09-19T09:46:17;20.00;11.40
9167;DHT22;4618;48.818;9.088;2023-09-19T09:48:45;20.10;11.80
9167;DHT22;4618;48.818;9.088;2023-09-19T09:51:30;20.00;14.40
9167;DHT22;4618;48.818;9.088;2023-09-19T09:54:13;19.90;19.30
9167;DHT22;4618;48.818;9.088;2023-09-19T09:59:22;19.70;36.80
9167;DHT22;4618;48.818;9.088;2023-09-19T10:01:54;19.90;20.70
9167;DHT22;4618;48.818;9.088;2023-09-19T10:04:29;20.30;6.20
9167;DHT22;4618;48.818;9.088;2023-09-19T10:07:01;20.60;8.10
9167;DHT22;4618;48.818;9.088;2023-09-19T10:09:44;20.70;1.00
9167;DHT22;4618;48.818;9.088;2023-09-19T10:12:11;21.90;1.00
9167;DHT22;4618;48.818;9.088;2023-09-19T10:14:38;21.70;1.00
9167;DHT22;4618;48.818;9.088;2023-09-19T10:17:10;21.50;1.00
9167;DHT22;4618;48.818;9.088;2023-09-19T10:19:55;22.30;1.00
9167;DHT22;4618;48.818;9.088;2023-09-19T10:22:23;22.20;1.00
9167;DHT22;4618;48.818;9.088;2023-09-19T10:24:50;21.60;1.00
9167;DHT22;4618;48.818;9.088;2023-09-19T10:27:19;22.50;1.00
9167;DHT22;4618;48.818;9.088;2023-09-19T10:29:49;22.80;1.00
9167;DHT22;4618;48.818;9.088;2023-09-19T10:32:19;22.40;1.00
9167;DHT22;4618;48.818;9.088;2023-09-19T10:37:23;24.50;99.90
9167;DHT22;4618;48.818;9.088;2023-09-19T10:39:51;24.50;99.90
9167;DHT22;4618;48.818;9.088;2023-09-19T10:42:20;25.20;99.90
9167;DHT22;4618;48.818;9.088;2023-09-19T10:44:47;25.00;99.90
9167;DHT22;4618;48.818;9.088;2023-09-19T10:47:19;24.80;99.90
9167;DHT22;4618;48.818;9.088;2023-09-19T10:49:46;24.90;99.90
9167;DHT22;4618;48.818;9.088;2023-09-19T10:52:13;24.60;99.90
9167;DHT22;4618;48.818;9.088;2023-09-19T10:54:46;24.70;99.90
9167;DHT22;4618;48.818;9.088;2023-09-19T10:57:19;24.80;99.90
9167;DHT22;4618;48.818;9.088;2023-09-19T11:02:32;23.90;99.90
9167;DHT22;4618;48.818;9.088;2023-09-19T11:05:11;23.00;99.90
9167;DHT22;4618;48.818;9.088;2023-09-19T11:07:59;22.80;1.00
9167;DHT22;4618;48.818;9.088;2023-09-19T11:10:44;23.40;1.00
9167;DHT22;4618;48.818;9.088;2023-09-19T11:13:28;23.10;1.00
9167;DHT22;4618;48.818;9.088;2023-09-19T11:26:48;24.80;1.00
9167;DHT22;4618;48.818;9.088;2023-09-19T11:29:30;24.60;1.00
9167;DHT22;4618;48.818;9.088;2023-09-19T11:31:57;25.20;99.90
9167;DHT22;4618;48.818;9.088;2023-09-19T11:34:37;25.30;99.90
9167;DHT22;4618;48.818;9.088;2023-09-19T11:40:08;24.80;99.90
9167;DHT22;4618;48.818;9.088;2023-09-19T11:42:47;23.80;99.90
9167;DHT22;4618;48.818;9.088;2023-09-19T11:48:14;23.80;1.00
9167;DHT22;4618;48.818;9.088;2023-09-19T11:50:44;23.80;1.00
9167;DHT22;4618;48.818;9.088;2023-09-19T11:53:14;24.40;1.00
9167;DHT22;4618;48.818;9.088;2023-09-19T11:55:41;25.10;1.00
9167;DHT22;4618;48.818;9.088;2023-09-19T11:58:08;25.40;1.00
9167;DHT22;4618;48.818;9.088;2023-09-19T12:00:35;26.40;1.00
9167;DHT22;4618;48.818;9.088;2023-09-19T12:03:08;27.10;99.90
9167;DHT22;4618;48.818;9.088;2023-09-19T12:05:35;27.30;1.00
9167;DHT22;4618;48.818;9.088;2023-09-19T12:08:03;27.40;1.00
9167;DHT22;4618;48.818;9.088;2023-09-19T12:12:55;28.00;99.90
9167;DHT22;4618;48.818;9.088;2023-09-19T12:15:25;25.30;99.90
9167;DHT22;4618;48.818;9.088;2023-09-19T12:18:00;24.10;99.90
9167;DHT22;4618;48.818;9.088;2023-09-19T12:23:13;22.60;1.00
9167;DHT22;4618;48.818;9.088;2023-09-19T12:25:45;22.50;1.00
9167;DHT22;4618;48.818;9.088;2023-09-19T12:28:14;22.80;1.00
9167;DHT22;4618;48.818;9.088;2023-09-19T12:30:42;23.60;1.00
9167;DHT22;4618;48.818;9.088;2023-09-19T12:33:18;25.20;1.00
9167;DHT22;4618;48.818;9.088;2023-09-19T12:35:47;25.40;1.00
9167;DHT22;4618;48.818;9.088;2023-09-19T12:38:28;25.70;1.00
9167;DHT22;4618;48.818;9.088;2023-09-19T12:40:55;25.80;1.00
9167;DHT22;4618;48.818;9.088;2023-09-19T12:43:22;27.40;1.00
9167;DHT22;4618;48.818;9.088;2023-09-19T12:45:48;27.90;1.00
9167;DHT22;4618;48.818;9.088;2023-09-19T12:51:06;28.30;1.00
9167;DHT22;4618;48.818;9.088;2023-09-19T13:06:03;29.80;1.00
9167;DHT22;4618;48.818;9.088;2023-09-19T13:08:39;29.70;19.20
9167;DHT22;4618;48.818;9.088;2023-09-19T13:13:45;27.50;15.60
9167;DHT22;4618;48.818;9.088;2023-09-19T13:16:14;27.00;11.00
9167;DHT22;4618;48.818;9.088;2023-09-19T13:18:58;26.80;1.00
9167;DHT22;4618;48.818;9.088;2023-09-19T13:58:14;27.10;99.90
9167;DHT22;4618;48.818;9.088;2023-09-19T14:00:40;26.60;1.00
9167;DHT22;4618;48.818;9.088;2023-09-19T14:03:05;26.90;1.00
9167;DHT22;4618;48.818;9.088;2023-09-19T14:05:31;26.80;1.00
9167;DHT22;4618;48.818;9.088;2023-09-19T14:07:57;26.20;1.00
9167;DHT22;4618;48.818;9.088;2023-09-19T14:10:24;25.30;1.00
9167;DHT22;4618;48.818;9.088;2023-09-19T14:12:51;25.10;1.00
9167;DHT22;4618;48.818;9.088;2023-09-19T14:15:17;25.40;1.00
9167;DHT22;4618;48.818;9.088;2023-09-19T14:17:42;25.80;1.00
9167;DHT22;4618;48.818;9.088;2023-09-19T14:20:10;26.50;1.00
9167;DHT22;4618;48.818;9.088;2023-09-19T14:22:36;26.80;1.00
9167;DHT22;4618;48.818;9.088;2023-09-19T14:25:03;26.20;1.00
9167;DHT22;4618;48.818;9.088;2023-09-19T14:27:29;26.80;1.00
9167;DHT22;4618;48.818;9.088;2023-09-19T14:29:55;26.50;1.00
9167;DHT22;4618;48.818;9.088;2023-09-19T14:32:22;25.40;1.00
9167;DHT22;4618;48.818;9.088;2023-09-19T15:16:47;23.60;99.90
9167;DHT22;4618;48.818;9.088;2023-09-19T15:19:13;23.30;99.90
9167;DHT22;4618;48.818;9.088;2023-09-19T15:21:39;23.80;99.90
9167;DHT22;4618;48.818;9.088;2023-09-19T15:24:05;23.90;99.90
9167;DHT22;4618;48.818;9.088;2023-09-19T15:26:35;24.00;99.90
9167;DHT22;4618;48.818;9.088;2023-09-19T15:29:07;24.80;99.90
9167;DHT22;4618;48.818;9.088;2023-09-19T15:31:33;25.20;99.90
9167;DHT22;4618;48.818;9.088;2023-09-19T15:33:59;24.80;99.90
9167;DHT22;4618;48.818;9.088;2023-09-19T15:36:24;24.50;99.90
9167;DHT22;4618;48.818;9.088;2023-09-19T15:41:19;23.90;99.90
9167;DHT22;4618;48.818;9.088;2023-09-19T15:43:46;23.20;99.90
9167;DHT22;4618;48.818;9.088;2023-09-19T15:46:11;22.90;99.90
9167;DHT22;4618;48.818;9.088;2023-09-19T15:48:37;22.70;99.90
9167;DHT22;4618;48.818;9.088;2023-09-19T15:51:03;22.40;99.90
9167;DHT22;4618;48.818;9.088;2023-09-19T15:53:45;22.40;99.90
9167;DHT22;4618;48.818;9.088;2023-09-19T15:56:12;22.60;99.90
9167;DHT22;4618;48.818;9.088;2023-09-19T15:58:43;22.60;99.90
9167;DHT22;4618;48.818;9.088;2023-09-19T16:01:09;22.50;99.90
9167;DHT22;4618;48.818;9.088;2023-09-19T16:03:40;22.40;99.90
9167;DHT22;4618;48.818;9.088;2023-09-19T16:06:13;22.30;99.90
9167;DHT22;4618;48.818;9.088;2023-09-19T16:08:46;22.30;99.90
9167;DHT22;4618;48.818;9.088;2023-09-19T16:11:13;22.40;99.90
9167;DHT22;4618;48.818;9.088;2023-09-19T16:13:40;22.50;99.90
9167;DHT22;4618;48.818;9.088;2023-09-19T16:16:07;22.60;99.90
9167;DHT22;4618;48.818;9.088;2023-09-19T16:18:34;22.70;99.90
9167;DHT22;4618;48.818;9.088;2023-09-19T16:21:03;22.60;99.90
9167;DHT22;4618;48.818;9.088;2023-09-19T16:23:30;22.60;99.90
9167;DHT22;4618;48.818;9.088;2023-09-19T16:26:06;22.40;99.90
9167;DHT22;4618;48.818;9.088;2023-09-19T16:28:38;22.30;99.90
9167;DHT22;4618;48.818;9.088;2023-09-19T16:31:05;22.40;99.90
9167;DHT22;4618;48.818;9.088;2023-09-19T16:33:32;22.30;99.90
9167;DHT22;4618;48.818;9.088;2023-09-19T16:35:58;22.50;99.90
9167;DHT22;4618;48.818;9.088;2023-09-19T16:38:25;22.30;99.90
9167;DHT22;4618;48.818;9.088;2023-09-19T16:40:56;22.00;99.90
9167;DHT22;4618;48.818;9.088;2023-09-19T16:43:26;21.80;99.90
9167;DHT22;4618;48.818;9.088;2023-09-19T16:45:58;21.60;99.90
9167;DHT22;4618;48.818;9.088;2023-09-19T16:48:25;21.50;99.90
9167;DHT22;4618;48.818;9.088;2023-09-19T16:50:58;21.40;99.90
9167;DHT22;4618;48.818;9.088;2023-09-19T16:53:24;21.40;99.90
9167;DHT22;4618;48.818;9.088;2023-09-19T16:55:50;21.50;99.90
9167;DHT22;4618;48.818;9.088;2023-09-19T16:58:16;21.90;99.90
9167;DHT22;4618;48.818;9.088;2023-09-19T17:00:42;22.30;99.90
9167;DHT22;4618;48.818;9.088;2023-09-19T17:03:10;22.60;99.90
9167;DHT22;4618;48.818;9.088;2023-09-19T17:05:39;22.40;99.90
9167;DHT22;4618;48.818;9.088;2023-09-19T17:08:06;22.10;99.90
9167;DHT22;4618;48.818;9.088;2023-09-19T17:10:33;22.10;99.90
9167;DHT22;4618;48.818;9.088;2023-09-19T17:12:59;22.10;99.90
9167;DHT22;4618;48.818;9.088;2023-09-19T17:15:25;22.20;99.90
9167;DHT22;4618;48.818;9.088;2023-09-19T17:17:52;22.10;99.90
9167;DHT22;4618;48.818;9.088;2023-09-19T17:20:18;21.80;99.90
9167;DHT22;4618;48.818;9.088;2023-09-19T17:22:44;21.50;99.90
9167;DHT22;4618;48.818;9.088;2023-09-19T17:25:10;21.20;99.90
9167;DHT22;4618;48.818;9.088;2023-09-19T17:27:38;20.80;99.90
9167;DHT22;4618;48.818;9.088;2023-09-19T17:30:08;20.50;99.90
9167;DHT22;4618;48.818;9.088;2023-09-19T17:32:35;20.40;99.90
9167;DHT22;4618;48.818;9.088;2023-09-19T17:35:02;20.20;99.90
9167;DHT22;4618;48.818;9.088;2023-09-19T17:37:28;20.10;99.90
9167;DHT22;4618;48.818;9.088;2023-09-19T17:39:54;19.80;99.90
9167;DHT22;4618;48.818;9.088;2023-09-19T17:42:20;19.60;1.00
9167;DHT22;4618;48.818;9.088;2023-09-19T17:44:45;19.50;1.00
9167;DHT22;4618;48.818;9.088;2023-09-19T17:47:11;19.30;1.00
9167;DHT22;4618;48.818;9.088;2023-09-19T17:49:37;19.10;1.00
9167;DHT22;4618;48.818;9.088;2023-09-19T17:52:02;19.10;1.00
9167;DHT22;4618;48.818;9.088;2023-09-19T17:54:29;19.00;1.00
9167;DHT22;4618;48.818;9.088;2023-09-19T17:56:56;19.00;1.00
9167;DHT22;4618;48.818;9.088;2023-09-19T17:59:21;18.90;1.00
9167;DHT22;4618;48.818;9.088;2023-09-19T18:01:48;18.80;1.00
9167;DHT22;4618;48.818;9.088;2023-09-19T18:04:15;18.90;1.00
9167;DHT22;4618;48.818;9.088;2023-09-19T18:06:41;18.80;1.00
9167;DHT22;4618;48.818;9.088;2023-09-19T18:09:07;18.70;1.00
9167;DHT22;4618;48.818;9.088;2023-09-19T18:11:33;18.70;1.00
9167;DHT22;4618;48.818;9.088;2023-09-19T18:13:59;18.70;1.00
9167;DHT22;4618;48.818;9.088;2023-09-19T18:16:25;18.60;1.00
9167;DHT22;4618;48.818;9.088;2023-09-19T18:18:53;18.50;1.00
9167;DHT22;4618;48.818;9.088;2023-09-19T18:21:19;18.40;1.00
9167;DHT22;4618;48.818;9.088;2023-09-19T18:23:55;18.20;1.00
9167;DHT22;4618;48.818;9.088;2023-09-19T18:26:23;18.10;1.00
9167;DHT22;4618;48.818;9.088;2023-09-19T18:28:49;18.10;1.00
9167;DHT22;4618;48.818;9.088;2023-09-19T18:31:15;18.10;1.00
9167;DHT22;4618;48.818;9.088;2023-09-19T18:33:43;18.00;1.00
9167;DHT22;4618;48.818;9.088;2023-09-19T18:36:08;17.90;34.90
9167;DHT22;4618;48.818;9.088;2023-09-19T18:38:38;17.70;99.90
9167;DHT22;4618;48.818;9.088;2023-09-19T18:41:16;17.60;99.90
9167;DHT22;4618;48.818;9.088;2023-09-19T18:43:42;17.50;99.90
9167;DHT22;4618;48.818;9.088;2023-09-19T18:46:07;17.30;99.90
9167;DHT22;4618;48.818;9.088;2023-09-19T18:48:40;17.20;1.00
9167;DHT22;4618;48.818;9.088;2023-09-19T18:51:10;17.10;1.00
9167;DHT22;4618;48.818;9.088;2023-09-19T18:53:37;17.10;1.00
9167;DHT22;4618;48.818;9.088;2023-09-19T18:56:04;17.20;1.00